Irvine, CA (92620)

8:02 AM PST on December 25, 2014 (GMT -0800)
Northwood | Change Station
CLOSE
Current Station
Personal Weather Station
Location: Irvine, CA
Elevation: 194 ft
Nearby Weather Stations
Active Advisory: Wind Advisory

Elev 194 ft 33.71 °N, 117.76 °W | Updated 6 seconds ago

Partly Cloudy
Partly Cloudy
52.5 °F
Feels Like 52.5 °F
N
1.0
Wind Variable Wind from WSW
Gusts 1.0 mph

Today
High -- | Low -- °F
--% Chance of Precip.
Yesterday
High -- | Low -- °F
Precip. -- in
6:53 AM 4:48 PM
Waxing Crescent, 17% visible
Pressure 29.84 in
Visibility 10.0 miles
Clouds Few 1500 ft
Scattered Clouds 30000 ft
Dew Point 49 °F
Humidity 88%
Rainfall 0.00 in
Snow Depth Not available.
UV 0 out of 12
Pollen 6.00 out of 12
Air Quality Not available.
Flu Activity Not available.
METAR KSNA 251553Z 00000KT 10SM FEW015 SCT300 14/02 A2984 RMK AO2 SLP103 T01390017

More Conditions Fewer Conditions

Pressure 29.84 in
Visibility 10.0 miles
Clouds Few 1500 ft
Scattered Clouds 30000 ft
Dew Point 49 °F
Humidity 88%
Rainfall 0.00 in
Snow Depth Not available.
UV 0 out of 12
Pollen 6.00 out of 12
Air Quality Not available.
Flu Activity Not available.
METAR KSNA 251553Z 00000KT 10SM FEW015 SCT300 14/02 A2984 RMK AO2 SLP103 T01390017

More Conditions Fewer Conditions

10-Day Weather Forecast

Almanac

Astronomy

Dec. 25, 2014 Rise Set
Actual Time
Civil Twilight
Nautical Twilight
Astronomical Twilight
Moon
Length of Visible Light
Length of Day
Tomorrow will be .
, % of the Moon is Illuminated

Today's Extremes

State Highs State Lows

Community

WunderPhotos

Upload Photos

1,780,317 photos uploaded!

WunderBlogs® & News

Nearby

Air Quality

  Air Quality AQ Index Pollutant
Not available.

Snow Depth

Station Depth Elevation

Earthquake Activity

City Distance Mag. Time & Date
Minimum magnitude displayed is 2.5.

Coastal Water Temperatures

Place Temperature

Nearby Weather Stations